Hakon Sorloth

Olheiro-Chefe - Lillestrom
4 Nov 2027
Quinta-feira
Processo

Personalidade

Adaptabilidade (4) Ambição (8) Controvérsia (9) Lealdade (18) Pressão (14) Profissionalismo (5) Espírito Esportivo (1) Temperamento (13)

Perfil

Estilo de Treinamento Democrático
Licença Nacional B
Determinação 6
Gestão de Pessoas 9
Motivação 8
Disciplina 10
Satisfação no Trabalho
100%
Fadiga
0%
Função Olheiro-Chefe
Salário 59.4K p/s
Contrato 14.03.2028

Desempenho

Comportamento Bom
Eficácia do Treinamento
33%
Desenvolvimento do Jogador
40%
Prevenção de Lesões
40%
Implementação Tática
35%

Eventos Recentes

Participou de uma reunião de recrutamento agora
Participou de uma reunião de recrutamento agora
Participou de uma reunião de recrutamento agora
Recomendou um alvo de transferência agora
Recomendou um alvo de transferência agora
Recomendou um alvo de transferência 7d atrás
Recomendou um alvo de transferência 7d atrás
Recomendou um alvo de transferência 7d atrás

Monitorando agora

85
Jogador Clube Status Habilidade Confiança Observado Última observação Último voto
Bradley Phiri LNZ Negociando 112 / 112 66% 1 16.07.2027 Aprovar
Shota Shekiladze Akhmat Grozny Negociando 110 / 110 66% 1 16.07.2027 Aprovar
Goga Kobiashvili Veres Negociando 92 / 92 66% 1 16.07.2027 Aprovar
Aljoša Matko Viborg Negociando 117 / 117 66% 1 16.07.2027 Aprovar
Keagan Mothiba Altach Negociando 112 / 116 66% 1 16.07.2027 -
Aleksander van der Spa Stromsgodset Negociando 96 / 95 62% 1 16.07.2027 -
Othmane Maamma Watford Ativo 121 / 131 40% 1 20.04.2027 -
Leo Castledine Middlesbrough Ativo 134 / 134 40% 1 15.04.2027 -
David Ozoh Derby County Ativo 123 / 124 40% 1 15.04.2027 -
Matías Gómez Granada Ativo 118 / 124 40% 2 14.04.2027 -
Rocco Vata Watford Ativo 119 / 123 40% 1 12.04.2027 -
Kamarni Ryan Burton Albion Ativo 88 / 96 40% 1 12.04.2027 -
Christ Inao Oulaï Fiorentina Ativo 125 / 133 40% 1 11.04.2027 -
Yussif Saidu Zaragoza Ativo 128 / 120 40% 1 05.04.2027 -
André Miranda Porto Ativo 100 / 106 40% 1 22.03.2027 -
Federico Serra Arezzo Ativo 94 / 93 40% 1 02.03.2027 -
Riley Owen Trento Ativo 103 / 108 40% 1 08.02.2027 -
Keagan Tau Ajax Cape Town Ativo 96 / 98 40% 1 08.02.2027 -
Dmitry Tsypchenko Torpedo Moscow Ativo 106 / 101 40% 2 31.01.2027 -
José Martínes CSKA 1948 Ativo 110 / 111 40% 2 31.01.2027 -
Mikhail Ignatov Sochi Ativo 126 / 105 40% 1 29.01.2027 -
Diamanka Senghor Mosta Ativo 98 / 96 40% 1 27.01.2027 -
Jacques Siwe Rubin Ativo 113 / 115 40% 2 26.01.2027 -
Nikolay Zlatev Cherno More Ativo 97 / 102 40% 1 25.01.2027 -
Bongani Mothiba SuperSport United Ativo 91 / 76 40% 3 24.01.2027 -
Williams Manyama SuperSport United Ativo 106 / 114 40% 1 24.01.2027 -
Ruben van Bommel Ferencvaros Ativo 125 / 133 40% 2 21.01.2027 -
Leandro Godoy CSKA Sofia Ativo 107 / 112 40% 5 20.01.2027 -
Thalente Mbatha Orlando Pirates Ativo 130 / 109 40% 1 20.01.2027 -
Nathan Ordaz Metalist Ativo 102 / 105 40% 1 19.01.2027 -
Jorge Padilla Cherno More Ativo 109 / 110 40% 1 16.01.2027 -
Etiosa Ighodaro Kaizer Chiefs Ativo 98 / 103 40% 3 15.01.2027 -
Peter Christiansen Viking Ativo 114 / 125 40% 1 15.01.2027 -
Emil Ceïde Rosenborg Ativo 122 / 118 40% 1 14.01.2027 -
Sebastián Arce Rodina Ativo 124 / 116 40% 1 13.01.2027 -
Themba Ngcobo SuperSport United Negociando 127 / 111 40% 3 10.01.2027 -
Yaroslav Gladyshev Dinamo Moscow Ativo 131 / 114 40% 4 10.01.2027 -
Lechi Sadulaev Akhmat Grozny Ativo 125 / 119 40% 1 10.01.2027 -
Olakunle Olusegun Rostov Ativo 138 / 123 40% 1 10.01.2027 -
Agustín Módica Gimnasia y Esgrima Ativo 124 / 125 40% 2 08.01.2027 -
Kenan Dervišagić Floriana Ativo 95 / 94 40% 1 08.01.2027 -
Marcelo Allende Mamelodi Sundowns Ativo 124 / 134 40% 2 07.01.2027 -
Siyanda Ndlovu Bloemfontein Celtic Ativo 130 / 115 40% 1 05.01.2027 -
Mohammed Yahaya Great Olympics Ativo 91 / 90 40% 1 02.01.2027 -
Ramiro Ruiz Rodríguez Atlético Tucumán Ativo 122 / 128 40% 1 02.01.2027 -
Yago Santiago Racing Santander Ativo 131 / 118 40% 2 31.12.2026 -
Ieltsin Camões Tromso Ativo 116 / 115 40% 1 31.12.2026 -
Evidence Makgopa Orlando Pirates Ativo 101 / 114 40% 4 28.12.2026 -
Ola Brynhildsen Bodo/Glimt Ativo 129 / 122 40% 5 24.12.2026 -
Magomed Nasibov Pobeda Ativo 92 / 78 40% 1 24.12.2026 -
Mduduzi Shabalala Kaizer Chiefs Ativo 99 / 119 40% 1 22.12.2026 -
Dmitry Pestryakov Dinamo Moscow Ativo 116 / 108 40% 1 21.12.2026 -
Isaac Essien WAFA Ativo 93 / 95 40% 2 18.12.2026 -
Brayan León Mamelodi Sundowns Ativo 115 / 120 40% 2 17.12.2026 -
Yeangel Montero Naxxar Lions Ativo 113 / 99 40% 1 15.12.2026 -
Dávid Ďuriš Rosenborg Ativo 122 / 125 40% 1 14.12.2026 -
Mandla Mahlangu Ajax Cape Town Ativo 93 / 98 40% 2 12.12.2026 Mais informações
Suleiman Camara Slovan Bratislava Ativo 132 / 116 40% 2 12.12.2026 -
Martin Sekulić Ural Ativo 118 / 102 40% 2 11.12.2026 -
Aidomo Emakhu Oxford United Ativo 124 / 125 40% 2 09.12.2026 -
Ammar Ramadan DAC Dunajska Streda Ativo 132 / 125 40% 3 08.12.2026 -
Vyacheslav Grulev Nizhniy Novgorod Ativo 124 / 112 40% 1 08.12.2026 -
Everton Bala Levski Ativo 132 / 133 40% 1 06.12.2026 -
Slobodan Tedić Akron Ativo 99 / 103 40% 1 06.12.2026 -
Tshepang Moremi Orlando Pirates Ativo 127 / 105 40% 1 06.12.2026 Mais informações
Denzel Jubitana Neftchi Ativo 106 / 113 40% 2 03.12.2026 -
Jonathan Gyan Liberty Professionals Ativo 110 / 93 40% 1 22.11.2026 -
Daniel Karlsbakk Sarpsborg 08 Ativo 119 / 126 40% 1 22.11.2026 -
Bongani Modiba Black Aces Ativo 108 / 120 40% 1 20.11.2026 -
Albert Rusnak FK Senica Ativo 95 / 93 40% 2 19.11.2026 -
Elias Hoff Melkersen Stromsgodset Ativo 111 / 121 40% 2 17.11.2026 -
Krisztofer Horváth Ujpest Ativo 122 / 118 40% 1 15.11.2026 -
Andrei Cordea CFR Cluj Ativo 121 / 128 40% 1 13.11.2026 -
Daniel Kelly Oxford United Ativo 116 / 123 40% 1 11.11.2026 -
Alexander Warneryd Tromso Ativo 116 / 115 40% 1 11.11.2026 -
Kwame Opoku Asante Kotoko Ativo 93 / 99 40% 1 10.11.2026 -
Bismark Asante Ashanti Gold Ativo 102 / 96 40% 1 09.11.2026 -
Vladimir Khubulov Dinamo Makhachkala Ativo 91 / 99 40% 1 07.11.2026 -
João Simões Sporting CP Ativo 118 / 139 40% 1 10.09.2026 -
Mauro Carrizo Atlético Tucumán Ativo 92 / 109 40% 1 09.09.2026 -
Filip Lissah Swansea City Ativo 101 / 121 40% 1 09.09.2026 -
Filip Loftesnes-Bjune Sandefjord Ativo 90 / 105 40% 1 08.09.2026 -
Edvard Pettersen Sandefjord Ativo 91 / 105 40% 1 08.09.2026 -
Matías Magdaleno Estudiantes Ativo 113 / 96 40% 1 07.09.2026 -
Markus Naglestad HIFK Ativo 111 / 103 40% 1 03.08.2026 -